createdAt,value
2024-03-21T00:00:07.403Z,81.00
2024-03-21T00:01:06.592Z,81.11
2024-03-21T00:02:06.973Z,81.19
2024-03-21T00:03:05.793Z,81.22
2024-03-21T00:04:06.433Z,81.22
2024-03-21T00:05:06.299Z,81.19
2024-03-21T00:06:05.933Z,81.20
2024-03-21T00:07:06.767Z,81.29
2024-03-21T00:08:06.672Z,81.42
2024-03-21T00:09:06.611Z,81.51
2024-03-21T00:10:06.500Z,81.40
2024-03-21T00:11:06.152Z,81.48
2024-03-21T00:12:05.885Z,81.32
2024-03-21T00:13:06.439Z,81.23
2024-03-21T00:14:06.008Z,81.38
2024-03-21T00:15:06.087Z,81.47
2024-03-21T00:16:05.690Z,81.49
2024-03-21T00:17:06.546Z,81.41
2024-03-21T00:18:06.254Z,81.47
2024-03-21T00:19:05.946Z,81.52
2024-03-21T00:20:06.839Z,81.57
2024-03-21T00:21:06.501Z,81.61
2024-03-21T00:22:06.279Z,81.71
2024-03-21T00:23:05.863Z,81.75
2024-03-21T00:24:06.506Z,81.74
2024-03-21T00:25:06.220Z,81.71
2024-03-21T00:26:06.022Z,81.79
2024-03-21T00:27:05.715Z,81.75
2024-03-21T00:28:06.467Z,81.77
2024-03-21T00:29:06.367Z,81.62
2024-03-21T00:30:06.587Z,81.66
2024-03-21T00:31:05.606Z,81.79
2024-03-21T00:32:06.338Z,81.75
2024-03-21T00:33:05.921Z,81.80
2024-03-21T00:34:06.518Z,81.73
2024-03-21T00:35:06.334Z,81.82
2024-03-21T00:36:06.002Z,81.94
2024-03-21T00:37:05.562Z,81.96
2024-03-21T00:38:06.301Z,81.94
2024-03-21T00:39:06.320Z,81.90
2024-03-21T00:40:06.025Z,81.88
2024-03-21T00:41:05.740Z,81.91
2024-03-21T00:42:06.290Z,81.97
2024-03-21T00:43:05.816Z,82
2024-03-21T00:44:06.409Z,82.07
2024-03-21T00:45:06.176Z,82.01
2024-03-21T00:46:05.835Z,81.92
2024-03-21T00:47:06.476Z,82.08
2024-03-21T00:48:06.220Z,82.01
2024-03-21T00:49:05.691Z,81.94
2024-03-21T00:50:06.213Z,82.01
2024-03-21T00:51:05.688Z,82.12
2024-03-21T00:52:06.281Z,82.05
2024-03-21T00:53:05.873Z,82.12
2024-03-21T00:54:06.322Z,82.04
2024-03-21T00:55:06.000Z,82.02
2024-03-21T00:56:05.542Z,82.03
2024-03-21T00:57:06.155Z,82.27
2024-03-21T00:58:05.666Z,82.34
2024-03-21T00:59:06.264Z,82.34
2024-03-21T01:00:06.816Z,82.32
2024-03-21T01:01:06.178Z,82.36
2024-03-21T01:02:05.980Z,82.39
2024-03-21T01:03:05.563Z,82.38
2024-03-21T01:04:06.099Z,82.45
2024-03-21T01:05:05.787Z,82.51
2024-03-21T01:06:06.318Z,82.58
2024-03-21T01:07:05.978Z,82.38
2024-03-21T01:08:05.669Z,82.49
2024-03-21T01:09:06.362Z,82.55
2024-03-21T01:10:05.994Z,82.43
2024-03-21T01:11:05.760Z,82.48
2024-03-21T01:12:06.349Z,82.46
2024-03-21T01:13:05.805Z,82.55
2024-03-21T01:14:07.761Z,82.75
2024-03-21T01:15:06.676Z,82.85
2024-03-21T01:16:06.272Z,82.69
2024-03-21T01:17:06.103Z,82.70
2024-03-21T01:18:05.798Z,82.69
2024-03-21T01:19:06.433Z,82.67
2024-03-21T01:20:06.262Z,82.65
2024-03-21T01:21:05.841Z,82.61
2024-03-21T01:22:06.389Z,82.64
2024-03-21T01:23:05.955Z,82.69
2024-03-21T01:24:06.445Z,82.68
2024-03-21T01:25:06.005Z,82.75
2024-03-21T01:26:05.532Z,82.89
2024-03-21T01:27:06.220Z,82.81
2024-03-21T01:28:05.804Z,82.86
2024-03-21T01:29:06.394Z,82.99
2024-03-21T01:30:06.461Z,82.96
2024-03-21T01:31:06.061Z,82.97
2024-03-21T01:32:06.021Z,82.95
2024-03-21T01:33:05.742Z,82.94
2024-03-21T01:34:06.360Z,83.04
2024-03-21T01:35:06.059Z,83.05
2024-03-21T01:36:05.654Z,83
2024-03-21T01:37:06.130Z,83.06
2024-03-21T01:38:05.614Z,83.16
2024-03-21T01:39:06.243Z,83.16
2024-03-21T01:40:05.618Z,83.30
2024-03-21T01:41:06.106Z,83.23
2024-03-21T01:42:05.654Z,83.07
2024-03-21T01:43:06.195Z,83.19
2024-03-21T01:44:05.726Z,83.31
2024-03-21T01:45:06.560Z,83.43
2024-03-21T01:46:06.158Z,83.42
2024-03-21T01:47:05.977Z,83.55
2024-03-21T01:48:09.047Z,83.44
2024-03-21T01:49:05.604Z,83.45
2024-03-21T01:50:06.129Z,83.5
2024-03-21T01:51:05.688Z,83.49
2024-03-21T01:52:06.216Z,83.56
2024-03-21T01:53:05.932Z,83.47
2024-03-21T01:54:06.412Z,83.51
2024-03-21T01:55:05.997Z,83.56
2024-03-21T01:56:05.555Z,83.55
2024-03-21T01:57:06.112Z,83.63
2024-03-21T01:58:05.516Z,83.60
2024-03-21T01:59:06.027Z,83.60
2024-03-21T02:00:06.426Z,83.64
2024-03-21T02:01:06.350Z,83.63
2024-03-21T02:02:06.181Z,83.70
2024-03-21T02:03:05.625Z,83.74
2024-03-21T02:04:06.094Z,83.77
2024-03-21T02:05:05.618Z,83.70
2024-03-21T02:06:06.530Z,83.80
2024-03-21T02:07:06.222Z,83.69
2024-03-21T02:08:05.703Z,83.84
2024-03-21T02:09:06.387Z,83.90
2024-03-21T02:10:06.096Z,83.95
2024-03-21T02:11:05.486Z,83.95
2024-03-21T02:12:06.066Z,83.96
2024-03-21T02:13:05.486Z,83.98
2024-03-21T02:14:06.221Z,83.94
2024-03-21T02:15:06.112Z,83.86
2024-03-21T02:16:05.634Z,83.80
2024-03-21T02:17:06.224Z,83.77
2024-03-21T02:18:05.659Z,83.93
2024-03-21T02:19:06.349Z,83.98
2024-03-21T02:20:06.049Z,83.98
2024-03-21T02:21:05.600Z,83.98
2024-03-21T02:22:06.152Z,83.95
2024-03-21T02:23:05.740Z,84.09
2024-03-21T02:24:06.246Z,84.10
2024-03-21T02:25:05.783Z,84.13
2024-03-21T02:26:06.229Z,84.24
2024-03-21T02:27:06.067Z,84.28
2024-03-21T02:28:05.675Z,84.21
2024-03-21T02:29:06.149Z,84.22
2024-03-21T02:30:06.199Z,84.06
2024-03-21T02:31:05.735Z,84.11
2024-03-21T02:32:06.399Z,84.20
2024-03-21T02:33:06.028Z,84.26
2024-03-21T02:34:05.717Z,84.23
2024-03-21T02:35:06.213Z,84.16
2024-03-21T02:36:05.578Z,84.01
2024-03-21T02:37:06.056Z,83.88
2024-03-21T02:38:05.688Z,83.88
2024-03-21T02:39:06.262Z,83.89
2024-03-21T02:40:05.948Z,83.58
2024-03-21T02:41:06.387Z,83.30
2024-03-21T02:42:05.993Z,83.26
2024-03-21T02:43:05.364Z,83.19
2024-03-21T02:44:05.781Z,83.04
2024-03-21T02:45:06.428Z,82.93
2024-03-21T02:46:06.092Z,82.84
2024-03-21T02:47:05.868Z,82.75
2024-03-21T02:48:06.328Z,82.60
2024-03-21T02:49:05.700Z,82.48
2024-03-21T02:50:06.209Z,82.40
2024-03-21T02:51:05.690Z,82.37
2024-03-21T02:52:06.154Z,82.26
2024-03-21T02:53:05.645Z,82.22
2024-03-21T02:54:06.080Z,82.10
2024-03-21T02:55:05.625Z,82.13
2024-03-21T02:56:06.053Z,82.20
2024-03-21T02:57:05.645Z,82.13
2024-03-21T02:58:05.976Z,82.00
2024-03-21T02:59:06.448Z,81.97
2024-03-21T03:00:07.783Z,82.00
2024-03-21T03:01:05.715Z,82.01
2024-03-21T03:02:06.399Z,81.93
2024-03-21T03:03:06.030Z,81.88
2024-03-21T03:04:05.482Z,81.83
2024-03-21T03:05:06.060Z,81.79
2024-03-21T03:06:05.656Z,81.73
2024-03-21T03:07:06.202Z,81.63
2024-03-21T03:08:05.695Z,81.67
2024-03-21T03:09:06.232Z,81.69
2024-03-21T03:10:05.883Z,81.63
2024-03-21T03:11:06.122Z,81.85
2024-03-21T03:12:05.646Z,82.07
2024-03-21T03:13:06.112Z,82.06
2024-03-21T03:14:05.554Z,82.08
2024-03-21T03:15:06.358Z,81.98
2024-03-21T03:16:05.864Z,81.80
2024-03-21T03:17:06.540Z,81.75
2024-03-21T03:18:06.047Z,81.55
2024-03-21T03:19:05.412Z,81.52
2024-03-21T03:20:05.848Z,81.48
2024-03-21T03:21:06.096Z,81.53
2024-03-21T03:22:05.658Z,81.49
2024-03-21T03:23:06.076Z,81.48
2024-03-21T03:24:05.460Z,81.47
2024-03-21T03:25:06.001Z,81.50
2024-03-21T03:26:05.414Z,81.52
2024-03-21T03:27:06.012Z,81.59
2024-03-21T03:28:05.418Z,81.63
2024-03-21T03:29:05.943Z,81.63
2024-03-21T03:30:06.835Z,81.65
2024-03-21T03:31:06.317Z,81.66
2024-03-21T03:32:05.998Z,81.60
2024-03-21T03:33:05.571Z,81.56
2024-03-21T03:34:06.093Z,81.61
2024-03-21T03:35:05.658Z,81.75
2024-03-21T03:36:06.015Z,81.86
2024-03-21T03:37:05.470Z,81.79
2024-03-21T03:38:05.895Z,81.70
2024-03-21T03:39:06.373Z,81.65
2024-03-21T03:40:06.032Z,81.69
2024-03-21T03:41:05.619Z,81.73
2024-03-21T03:42:05.949Z,81.78
2024-03-21T03:43:06.302Z,81.84
2024-03-21T03:44:05.874Z,81.84
2024-03-21T03:45:06.535Z,81.84
2024-03-21T03:46:05.906Z,81.88
2024-03-21T03:47:06.375Z,81.88
2024-03-21T03:48:05.809Z,81.94
2024-03-21T03:49:06.184Z,82.00
2024-03-21T03:50:05.933Z,81.66
2024-03-21T03:51:06.436Z,81.77
2024-03-21T03:52:06.004Z,81.91
2024-03-21T03:53:05.495Z,81.93
2024-03-21T03:54:05.961Z,81.99
2024-03-21T03:55:06.447Z,82.08
2024-03-21T03:56:05.979Z,82.16
2024-03-21T03:57:05.505Z,82.26
2024-03-21T03:58:05.981Z,82.43
2024-03-21T03:59:05.491Z,82.42
2024-03-21T04:00:06.811Z,82.39
2024-03-21T04:01:05.721Z,82.30
2024-03-21T04:02:06.494Z,82.46
2024-03-21T04:03:05.995Z,82.54
2024-03-21T04:04:05.514Z,82.63
2024-03-21T04:05:06.113Z,82.46
2024-03-21T04:06:05.729Z,82.35
2024-03-21T04:07:06.114Z,82.44
2024-03-21T04:08:05.962Z,82.67
2024-03-21T04:09:06.540Z,82.79
2024-03-21T04:10:05.902Z,82.87
2024-03-21T04:11:06.328Z,82.91
2024-03-21T04:12:05.968Z,82.80
2024-03-21T04:13:06.524Z,82.79
2024-03-21T04:14:05.960Z,82.80
2024-03-21T04:15:06.645Z,82.83
2024-03-21T04:16:06.019Z,82.83
2024-03-21T04:17:05.912Z,82.87
2024-03-21T04:18:06.352Z,82.81
2024-03-21T04:19:05.930Z,82.87
2024-03-21T04:20:06.414Z,82.79
2024-03-21T04:21:06.014Z,82.99
2024-03-21T04:22:05.612Z,82.93
2024-03-21T04:23:06.071Z,82.97
2024-03-21T04:24:05.592Z,82.93
2024-03-21T04:25:05.982Z,82.76
2024-03-21T04:26:05.501Z,82.82
2024-03-21T04:27:05.996Z,82.91
2024-03-21T04:28:05.451Z,83.00
2024-03-21T04:29:05.907Z,82.96
2024-03-21T04:30:06.531Z,82.95
2024-03-21T04:31:06.026Z,82.92
2024-03-21T04:32:05.687Z,82.86
2024-03-21T04:33:06.015Z,82.91
2024-03-21T04:34:05.678Z,82.85
2024-03-21T04:35:06.134Z,82.86
2024-03-21T04:36:05.675Z,82.86
2024-03-21T04:37:06.008Z,82.88
2024-03-21T04:38:05.547Z,82.94
2024-03-21T04:39:06.023Z,82.91
2024-03-21T04:40:05.647Z,82.91
2024-03-21T04:41:06.148Z,83.05
2024-03-21T04:42:05.751Z,82.92
2024-03-21T04:43:06.099Z,82.91
2024-03-21T04:44:05.743Z,83.07
2024-03-21T04:45:06.482Z,83.13
2024-03-21T04:46:06.279Z,83.19
2024-03-21T04:47:06.061Z,83.29
2024-03-21T04:48:05.884Z,83.27
2024-03-21T04:49:06.306Z,83.30
2024-03-21T04:50:05.950Z,83.25
2024-03-21T04:51:06.568Z,83.20
2024-03-21T04:52:06.040Z,83.32
2024-03-21T04:53:05.546Z,83.43
2024-03-21T04:54:06.070Z,83.41
2024-03-21T04:55:05.819Z,83.43
2024-03-21T04:56:06.194Z,83.75
2024-03-21T04:57:05.816Z,83.84
2024-03-21T04:58:06.146Z,83.79
2024-03-21T04:59:05.538Z,83.88
2024-03-21T05:00:08.120Z,83.83
2024-03-21T05:01:06.216Z,83.94
2024-03-21T05:02:05.855Z,83.87
2024-03-21T05:03:06.303Z,83.97
2024-03-21T05:04:06.009Z,84.01
2024-03-21T05:05:05.719Z,84.11
2024-03-21T05:06:06.177Z,84.41
2024-03-21T05:07:05.704Z,84.48
2024-03-21T05:08:06.106Z,84.57
2024-03-21T05:09:05.691Z,84.74
2024-03-21T05:10:06.448Z,84.84
2024-03-21T05:11:05.763Z,84.99
2024-03-21T05:12:06.338Z,84.93
2024-03-21T05:13:05.768Z,84.75
2024-03-21T05:14:06.123Z,84.62
2024-03-21T05:15:06.042Z,84.86
2024-03-21T05:16:05.755Z,85.01
2024-03-21T05:17:06.427Z,84.98
2024-03-21T05:18:06.112Z,84.91
2024-03-21T05:19:05.692Z,84.81
2024-03-21T05:20:06.231Z,84.70
2024-03-21T05:21:05.925Z,84.80
2024-03-21T05:22:06.422Z,84.85
2024-03-21T05:23:06.127Z,84.82
2024-03-21T05:24:05.802Z,84.83
2024-03-21T05:25:06.759Z,84.96
2024-03-21T05:26:06.340Z,85.22
2024-03-21T05:27:05.935Z,85.14
2024-03-21T05:28:06.701Z,85.06
2024-03-21T05:29:06.119Z,85.01
2024-03-21T05:30:05.972Z,85.01
2024-03-21T05:31:06.669Z,85
2024-03-21T05:32:06.359Z,84.98
2024-03-21T05:33:05.936Z,84.95
2024-03-21T05:34:06.411Z,84.95
2024-03-21T05:35:06.030Z,84.96
2024-03-21T05:36:05.686Z,84.97
2024-03-21T05:37:06.138Z,84.94
2024-03-21T05:38:05.721Z,84.98
2024-03-21T05:39:06.389Z,84.99
2024-03-21T05:40:06.174Z,85.07
2024-03-21T05:41:05.815Z,85.09
2024-03-21T05:42:06.404Z,85.09
2024-03-21T05:43:05.909Z,85.03
2024-03-21T05:44:06.265Z,85.12
2024-03-21T05:45:06.024Z,85.18
2024-03-21T05:46:05.510Z,85.22
2024-03-21T05:47:06.359Z,85.27
2024-03-21T05:48:05.842Z,85.28
2024-03-21T05:49:06.394Z,85.37
2024-03-21T05:50:06.038Z,85.50
2024-03-21T05:51:05.615Z,85.49
2024-03-21T05:52:06.020Z,85.47
2024-03-21T05:53:05.531Z,85.54
2024-03-21T05:54:06.110Z,85.58
2024-03-21T05:55:05.908Z,85.65
2024-03-21T05:56:06.375Z,85.64
2024-03-21T05:57:05.982Z,85.53
2024-03-21T05:58:05.540Z,85.71
2024-03-21T05:59:06.177Z,85.89
2024-03-21T06:00:06.925Z,85.90
2024-03-21T06:01:06.034Z,85.74
2024-03-21T06:02:05.875Z,85.75
2024-03-21T06:03:06.329Z,85.67
2024-03-21T06:04:06.014Z,85.59
2024-03-21T06:05:05.811Z,85.58
2024-03-21T06:06:06.279Z,85.65
2024-03-21T06:07:06.018Z,85.63
2024-03-21T06:08:05.617Z,85.64
2024-03-21T06:09:06.277Z,85.75
2024-03-21T06:10:06.114Z,85.83
2024-03-21T06:11:05.867Z,85.93
2024-03-21T06:12:06.310Z,86.09
2024-03-21T06:13:05.933Z,86.02
2024-03-21T06:14:06.554Z,86.05
2024-03-21T06:15:06.680Z,85.93
2024-03-21T06:16:06.233Z,85.96
2024-03-21T06:17:06.117Z,85.96
2024-03-21T06:18:05.718Z,86.03
2024-03-21T06:19:06.002Z,86.10
2024-03-21T06:20:05.906Z,86.10
2024-03-21T06:21:06.486Z,86.02
2024-03-21T06:22:06.126Z,85.95
2024-03-21T06:23:05.773Z,85.88
2024-03-21T06:24:06.474Z,85.92
2024-03-21T06:25:06.228Z,85.90
2024-03-21T06:26:05.804Z,85.91
2024-03-21T06:27:06.251Z,85.88
2024-03-21T06:28:05.751Z,85.89
2024-03-21T06:29:06.101Z,85.90
2024-03-21T06:30:06.026Z,85.80
2024-03-21T06:31:05.461Z,85.81
2024-03-21T06:32:06.037Z,85.84
2024-03-21T06:33:05.551Z,85.84
2024-03-21T06:34:06.058Z,85.80
2024-03-21T06:35:05.655Z,85.80
2024-03-21T06:36:06.163Z,85.77
2024-03-21T06:37:05.706Z,85.75
2024-03-21T06:38:06.151Z,85.66
2024-03-21T06:39:05.926Z,85.57
2024-03-21T06:40:06.466Z,85.54
2024-03-21T06:41:05.924Z,85.52
2024-03-21T06:42:06.311Z,85.41
2024-03-21T06:43:05.762Z,85.39
2024-03-21T06:44:06.145Z,85.40
2024-03-21T06:45:06.133Z,85.29
2024-03-21T06:46:05.812Z,85.10
2024-03-21T06:47:06.477Z,85.22
2024-03-21T06:48:06.057Z,85.05
2024-03-21T06:49:05.667Z,84.97
2024-03-21T06:50:05.987Z,85.02
2024-03-21T06:51:05.552Z,85.10
2024-03-21T06:52:06.079Z,85.17
2024-03-21T06:53:05.680Z,85.33
2024-03-21T06:54:06.212Z,85.24
2024-03-21T06:55:05.892Z,85.33
2024-03-21T06:56:06.304Z,85.31
2024-03-21T06:57:05.902Z,85.28
2024-03-21T06:58:06.438Z,85.28
2024-03-21T06:59:06.017Z,85.26
2024-03-21T07:00:06.780Z,85.23
2024-03-21T07:01:05.781Z,85.28
2024-03-21T07:02:06.378Z,85.20
2024-03-21T07:03:06.061Z,85.15
2024-03-21T07:04:05.722Z,84.93
2024-03-21T07:05:06.320Z,84.75
2024-03-21T07:06:05.901Z,84.52
2024-03-21T07:07:06.475Z,84.59
2024-03-21T07:08:05.997Z,84.74
2024-03-21T07:09:05.798Z,84.58
2024-03-21T07:10:06.219Z,84.54
2024-03-21T07:11:05.733Z,84.41
2024-03-21T07:12:06.109Z,84.24
2024-03-21T07:13:05.717Z,84.45
2024-03-21T07:14:06.201Z,84.64
2024-03-21T07:15:06.080Z,84.74
2024-03-21T07:16:05.646Z,84.59
2024-03-21T07:17:06.393Z,84.49
2024-03-21T07:18:06.001Z,84.65
2024-03-21T07:19:05.635Z,84.76
2024-03-21T07:20:08.389Z,84.86
2024-03-21T07:21:06.029Z,84.91
2024-03-21T07:22:05.639Z,84.99
2024-03-21T07:23:06.093Z,85.02
2024-03-21T07:24:05.638Z,84.56
2024-03-21T07:25:06.099Z,84.58
2024-03-21T07:26:05.700Z,84.60
2024-03-21T07:27:06.124Z,84.51
2024-03-21T07:28:05.805Z,84.66
2024-03-21T07:29:06.176Z,84.53
2024-03-21T07:30:06.056Z,84.60
2024-03-21T07:31:05.493Z,84.79
2024-03-21T07:32:06.258Z,84.93
2024-03-21T07:33:05.874Z,84.89
2024-03-21T07:34:06.266Z,84.85
2024-03-21T07:35:05.729Z,84.92
2024-03-21T07:36:06.112Z,85.05
2024-03-21T07:37:05.643Z,85.05
2024-03-21T07:38:06.247Z,85.12
2024-03-21T07:39:06.055Z,84.95
2024-03-21T07:40:05.775Z,84.69
2024-03-21T07:41:08.952Z,84.52
2024-03-21T07:42:05.594Z,84.45
2024-03-21T07:43:06.274Z,84.51
2024-03-21T07:44:05.869Z,84.50
2024-03-21T07:45:06.599Z,84.57
2024-03-21T07:46:06.038Z,84.38
2024-03-21T07:47:05.851Z,84.31
2024-03-21T07:48:06.321Z,84.30
2024-03-21T07:49:05.943Z,84.19
2024-03-21T07:50:06.577Z,84.07
2024-03-21T07:51:06.051Z,84.03
2024-03-21T07:52:05.679Z,84.01
2024-03-21T07:53:06.167Z,84.19
2024-03-21T07:54:05.892Z,84.23
2024-03-21T07:55:06.427Z,84.22
2024-03-21T07:56:05.898Z,84.15
2024-03-21T07:57:06.344Z,84.26
2024-03-21T07:58:05.931Z,84.35
2024-03-21T07:59:06.407Z,84.33
2024-03-21T08:00:07.208Z,84.16
2024-03-21T08:01:09.899Z,84.09
2024-03-21T08:02:06.546Z,84.24
2024-03-21T08:03:06.194Z,84.14
2024-03-21T08:04:06.199Z,84.14
2024-03-21T08:05:05.969Z,84.07
2024-03-21T08:06:05.603Z,84.09
2024-03-21T08:07:06.064Z,84.20
2024-03-21T08:08:05.794Z,84.12
2024-03-21T08:09:06.332Z,84.17
2024-03-21T08:10:05.939Z,84.39
2024-03-21T08:11:05.691Z,84.33
2024-03-21T08:12:06.168Z,84.26
2024-03-21T08:13:05.754Z,84.23
2024-03-21T08:14:06.299Z,84.18
2024-03-21T08:15:06.286Z,84.33
2024-03-21T08:16:06.012Z,84.28
2024-03-21T08:17:06.083Z,84.15
2024-03-21T08:18:05.843Z,84.04
2024-03-21T08:19:06.352Z,84.10
2024-03-21T08:20:06.061Z,84.14
2024-03-21T08:21:05.645Z,84.14
2024-03-21T08:22:06.030Z,84.01
2024-03-21T08:23:05.714Z,84.05
2024-03-21T08:24:06.171Z,84.21
2024-03-21T08:25:05.789Z,84.23
2024-03-21T08:26:06.394Z,84.06
2024-03-21T08:27:05.959Z,84.19
2024-03-21T08:28:06.409Z,84.21
2024-03-21T08:29:05.998Z,84.11
2024-03-21T08:30:05.922Z,84.12
2024-03-21T08:31:06.445Z,84.19
2024-03-21T08:32:06.511Z,84.26
2024-03-21T08:33:06.231Z,84.20
2024-03-21T08:34:05.831Z,84.26
2024-03-21T08:35:06.374Z,84.22
2024-03-21T08:36:05.986Z,84.16
2024-03-21T08:37:05.683Z,83.98
2024-03-21T08:38:06.290Z,83.97
2024-03-21T08:39:06.153Z,84.04
2024-03-21T08:40:05.990Z,84.05
2024-03-21T08:41:05.740Z,84.00
2024-03-21T08:42:06.294Z,83.97
2024-03-21T08:43:05.921Z,83.97
2024-03-21T08:44:06.455Z,83.83
2024-03-21T08:45:06.325Z,83.68
2024-03-21T08:46:05.873Z,83.81
2024-03-21T08:47:06.568Z,83.85
2024-03-21T08:48:06.108Z,83.84
2024-03-21T08:49:05.765Z,83.98
2024-03-21T08:50:06.270Z,84.00
2024-03-21T08:51:05.934Z,83.96
2024-03-21T08:52:05.631Z,83.75
2024-03-21T08:53:06.397Z,83.93
2024-03-21T08:54:06.278Z,83.85
2024-03-21T08:55:05.968Z,83.96
2024-03-21T08:56:06.735Z,83.72
2024-03-21T08:57:06.653Z,83.80
2024-03-21T08:58:06.194Z,83.97
2024-03-21T08:59:05.890Z,83.91
2024-03-21T09:00:07.569Z,83.80
2024-03-21T09:01:06.328Z,83.69
2024-03-21T09:02:06.206Z,83.84
2024-03-21T09:03:05.799Z,83.76
2024-03-21T09:04:06.456Z,83.73
2024-03-21T09:05:06.258Z,83.71
2024-03-21T09:06:06.001Z,83.59
2024-03-21T09:07:05.720Z,83.62
2024-03-21T09:08:06.223Z,83.47
2024-03-21T09:09:06.089Z,83.64
2024-03-21T09:10:05.880Z,83.73
2024-03-21T09:11:06.548Z,83.63
2024-03-21T09:12:06.268Z,83.54
2024-03-21T09:13:05.776Z,83.72
2024-03-21T09:14:06.531Z,83.72
2024-03-21T09:15:06.530Z,83.66
2024-03-21T09:16:06.163Z,83.75
2024-03-21T09:17:06.145Z,83.71
2024-03-21T09:18:05.978Z,83.66
2024-03-21T09:19:05.798Z,83.61
2024-03-21T09:20:06.641Z,83.85
2024-03-21T09:21:06.409Z,83.91
2024-03-21T09:22:06.077Z,83.98
2024-03-21T09:23:05.796Z,84.04
2024-03-21T09:24:06.616Z,84.10
2024-03-21T09:25:06.878Z,83.91
2024-03-21T09:26:06.457Z,83.83
2024-03-21T09:27:12.223Z,83.79
2024-03-21T09:28:05.947Z,83.76
2024-03-21T09:29:06.516Z,83.61
2024-03-21T09:30:06.529Z,83.55
2024-03-21T09:31:06.108Z,83.56
2024-03-21T09:32:06.203Z,83.70
2024-03-21T09:33:05.902Z,84.00
2024-03-21T09:34:06.409Z,84.08
2024-03-21T09:35:06.302Z,83.83
2024-03-21T09:36:06.315Z,83.82
2024-03-21T09:37:06.007Z,84.01
2024-03-21T09:38:05.748Z,83.93
2024-03-21T09:39:06.545Z,83.96
2024-03-21T09:40:06.056Z,84.33
2024-03-21T09:41:05.709Z,84.38
2024-03-21T09:42:06.346Z,84.32
2024-03-21T09:43:05.927Z,84.18
2024-03-21T09:44:06.382Z,84.28
2024-03-21T09:45:06.619Z,84.17
2024-03-21T09:46:06.055Z,84.21
2024-03-21T09:47:05.887Z,84.38
2024-03-21T09:48:06.440Z,84.20
2024-03-21T09:49:05.959Z,83.95
2024-03-21T09:50:06.576Z,83.97
2024-03-21T09:51:06.130Z,84.02
2024-03-21T09:52:05.824Z,84.05
2024-03-21T09:53:06.455Z,84.27
2024-03-21T09:54:06.029Z,84.26
2024-03-21T09:55:05.615Z,84.14
2024-03-21T09:56:06.229Z,84.09
2024-03-21T09:57:06.010Z,84.10
2024-03-21T09:58:05.626Z,84.19
2024-03-21T09:59:06.018Z,84.25
2024-03-21T10:00:06.465Z,84.41
2024-03-21T10:01:05.769Z,84.38
2024-03-21T10:02:06.702Z,84.59
2024-03-21T10:03:06.265Z,84.61
2024-03-21T10:04:06.101Z,84.66
2024-03-21T10:05:05.859Z,84.69
2024-03-21T10:06:06.458Z,84.44
2024-03-21T10:07:05.943Z,84.48
2024-03-21T10:08:05.735Z,84.51
2024-03-21T10:09:06.395Z,84.55
2024-03-21T10:10:05.911Z,84.73
2024-03-21T10:11:06.359Z,84.58
2024-03-21T10:12:05.820Z,84.62
2024-03-21T10:13:06.312Z,84.70
2024-03-21T10:14:05.972Z,84.73
2024-03-21T10:15:05.814Z,84.92
2024-03-21T10:16:06.260Z,84.93
2024-03-21T10:17:06.305Z,84.89
2024-03-21T10:18:05.660Z,84.69
2024-03-21T10:19:06.151Z,84.67
2024-03-21T10:20:05.765Z,84.87
2024-03-21T10:21:06.359Z,84.83
2024-03-21T10:22:05.865Z,84.47
2024-03-21T10:23:06.542Z,84.45
2024-03-21T10:24:06.142Z,84.32
2024-03-21T10:25:05.651Z,84.27
2024-03-21T10:26:06.269Z,84.37
2024-03-21T10:27:05.873Z,84.31
2024-03-21T10:28:06.365Z,84.18
2024-03-21T10:29:06.100Z,83.97
2024-03-21T10:30:06.190Z,83.81
2024-03-21T10:31:05.830Z,83.74
2024-03-21T10:32:06.648Z,83.64
2024-03-21T10:33:06.055Z,83.55
2024-03-21T10:34:05.682Z,83.25
2024-03-21T10:35:20.917Z,83.31
2024-03-21T10:36:05.636Z,83.31
2024-03-21T10:37:06.153Z,83.06
2024-03-21T10:38:06.130Z,83.34
2024-03-21T10:39:05.888Z,83.31
2024-03-21T10:40:06.600Z,83.11
2024-03-21T10:41:06.030Z,82.96
2024-03-21T10:42:05.476Z,82.78
2024-03-21T10:43:05.859Z,82.72
2024-03-21T10:44:06.423Z,82.61
2024-03-21T10:45:06.702Z,82.68
2024-03-21T10:46:06.284Z,82.58
2024-03-21T10:47:06.033Z,82.29
2024-03-21T10:48:05.634Z,82.13
2024-03-21T10:49:06.288Z,81.91
2024-03-21T10:50:06.178Z,81.75
2024-03-21T10:51:05.810Z,81.59
2024-03-21T10:52:06.302Z,81.75
2024-03-21T10:53:05.928Z,81.61
2024-03-21T10:54:06.474Z,81.31
2024-03-21T10:55:06.076Z,81.26
2024-03-21T10:56:05.822Z,81.08
2024-03-21T10:57:06.431Z,81.17
2024-03-21T10:58:06.085Z,81.23
2024-03-21T10:59:05.728Z,81.27
2024-03-21T11:00:07.668Z,81.35
2024-03-21T11:01:06.271Z,81.56
2024-03-21T11:02:06.236Z,81.56
2024-03-21T11:03:05.993Z,81.65
2024-03-21T11:04:05.496Z,81.60
2024-03-21T11:05:05.952Z,81.73
2024-03-21T11:06:06.410Z,81.80
2024-03-21T11:07:05.872Z,81.62
2024-03-21T11:08:06.483Z,81.52
2024-03-21T11:09:06.027Z,81.48
2024-03-21T11:10:05.916Z,81.48
2024-03-21T11:11:06.298Z,81.58
2024-03-21T11:12:06.042Z,81.69
2024-03-21T11:13:05.594Z,81.99
2024-03-21T11:14:06.091Z,81.79
2024-03-21T11:15:05.973Z,81.66
2024-03-21T11:16:06.810Z,81.77
2024-03-21T11:17:06.457Z,81.79
2024-03-21T11:18:06.063Z,81.80
2024-03-21T11:19:05.626Z,81.80
2024-03-21T11:20:06.244Z,81.66
2024-03-21T11:21:05.763Z,81.58
2024-03-21T11:22:06.431Z,81.56
2024-03-21T11:23:05.942Z,81.57
2024-03-21T11:24:06.492Z,81.55
2024-03-21T11:25:06.992Z,81.57
2024-03-21T11:26:06.348Z,81.49
2024-03-21T11:27:05.811Z,81.45
2024-03-21T11:28:06.367Z,81.43
2024-03-21T11:29:20.556Z,81.21
2024-03-21T11:30:06.451Z,81.21
2024-03-21T11:31:05.864Z,80.94
2024-03-21T11:32:06.620Z,80.95
2024-03-21T11:33:06.234Z,80.75
2024-03-21T11:34:05.823Z,80.75
2024-03-21T11:35:07.504Z,80.83
2024-03-21T11:36:06.014Z,80.70
2024-03-21T11:37:05.528Z,80.62
2024-03-21T11:38:06.099Z,80.57
2024-03-21T11:39:05.660Z,80.59
2024-03-21T11:40:06.210Z,80.74
2024-03-21T11:41:05.705Z,80.59
2024-03-21T11:42:06.254Z,80.50
2024-03-21T11:43:05.722Z,80.69
2024-03-21T11:44:06.210Z,80.90
2024-03-21T11:45:06.064Z,80.67
2024-03-21T11:46:05.569Z,80.38
2024-03-21T11:47:06.270Z,80.28
2024-03-21T11:48:05.708Z,80.29
2024-03-21T11:49:06.164Z,80.25
2024-03-21T11:50:05.934Z,80.24
2024-03-21T11:51:06.479Z,80.14
2024-03-21T11:52:05.949Z,79.91
2024-03-21T11:53:06.608Z,79.56
2024-03-21T11:54:06.003Z,79.47
2024-03-21T11:55:05.810Z,79.46
2024-03-21T11:56:06.316Z,79.45
2024-03-21T11:57:05.886Z,79.29
2024-03-21T11:58:06.491Z,79.15
2024-03-21T11:59:06.019Z,79.09
2024-03-21T12:00:06.784Z,79.03
2024-03-21T12:01:05.819Z,78.71
2024-03-21T12:02:06.662Z,78.66
2024-03-21T12:03:06.160Z,78.72
2024-03-21T12:04:06.039Z,78.82
2024-03-21T12:05:05.807Z,78.62
2024-03-21T12:06:06.505Z,78.58
2024-03-21T12:07:06.084Z,78.63
2024-03-21T12:08:05.788Z,78.49
2024-03-21T12:09:06.446Z,78.52
2024-03-21T12:10:06.266Z,78.45
2024-03-21T12:11:06.157Z,78.33
2024-03-21T12:12:05.786Z,78.30
2024-03-21T12:13:06.286Z,78.20
2024-03-21T12:14:05.948Z,77.92
2024-03-21T12:15:06.913Z,77.78
2024-03-21T12:16:06.410Z,77.72
2024-03-21T12:17:06.380Z,77.60
2024-03-21T12:18:06.054Z,77.41
2024-03-21T12:19:05.746Z,77.32
2024-03-21T12:20:06.417Z,77.41
2024-03-21T12:21:05.943Z,77.59
2024-03-21T12:22:05.623Z,77.78
2024-03-21T12:23:06.293Z,78.11
2024-03-21T12:24:06.007Z,78.31
2024-03-21T12:25:05.661Z,78.00
2024-03-21T12:26:06.107Z,78.04
2024-03-21T12:27:05.870Z,77.70
2024-03-21T12:28:06.412Z,77.63
2024-03-21T12:29:06.327Z,77.35
2024-03-21T12:30:06.384Z,77.30
2024-03-21T12:31:06.108Z,77.32
2024-03-21T12:32:06.109Z,77.35
2024-03-21T12:33:05.745Z,77.42
2024-03-21T12:34:06.258Z,77.40
2024-03-21T12:35:06.122Z,77.59
2024-03-21T12:36:05.802Z,77.22
2024-03-21T12:37:06.374Z,77.12
2024-03-21T12:38:05.959Z,77.09
2024-03-21T12:39:06.684Z,76.98
2024-03-21T12:40:06.248Z,76.45
2024-03-21T12:41:05.830Z,76.52
2024-03-21T12:42:06.363Z,76.33
2024-03-21T12:43:05.827Z,76.47
2024-03-21T12:44:06.299Z,76.54
2024-03-21T12:45:06.068Z,76.51
2024-03-21T12:46:05.760Z,76.43
2024-03-21T12:47:06.547Z,76.72
2024-03-21T12:48:06.320Z,76.71
2024-03-21T12:49:05.843Z,76.63
2024-03-21T12:50:06.507Z,76.54
2024-03-21T12:51:06.468Z,76.53
2024-03-21T12:52:06.209Z,76.50
2024-03-21T12:53:05.885Z,76.46